sensor_id;sensor_type;location;lat;lon;timestamp;P1;durP1;ratioP1;P2;durP2;ratioP2
20627;SDS011;10473;42.734;24.258;2022-12-07T00:02:10;9.27;;;6.20;;
20627;SDS011;10473;42.734;24.258;2022-12-07T00:04:38;7.77;;;4.40;;
20627;SDS011;10473;42.734;24.258;2022-12-07T00:07:09;9.47;;;4.43;;
20627;SDS011;10473;42.734;24.258;2022-12-07T00:09:38;8.73;;;5.67;;
20627;SDS011;10473;42.734;24.258;2022-12-07T00:12:07;8.10;;;4.63;;
20627;SDS011;10473;42.734;24.258;2022-12-07T00:14:35;7.80;;;4.20;;
20627;SDS011;10473;42.734;24.258;2022-12-07T00:17:03;7.50;;;4.30;;
20627;SDS011;10473;42.734;24.258;2022-12-07T00:19:30;6.33;;;4.67;;
20627;SDS011;10473;42.734;24.258;2022-12-07T00:21:58;7.77;;;3.93;;
20627;SDS011;10473;42.734;24.258;2022-12-07T00:24:26;6.53;;;4.20;;
20627;SDS011;10473;42.734;24.258;2022-12-07T00:26:55;6.77;;;3.93;;
20627;SDS011;10473;42.734;24.258;2022-12-07T00:29:23;11.03;;;5.80;;
20627;SDS011;10473;42.734;24.258;2022-12-07T00:31:50;7.53;;;5.20;;
20627;SDS011;10473;42.734;24.258;2022-12-07T00:34:19;5.57;;;4.10;;
20627;SDS011;10473;42.734;24.258;2022-12-07T00:36:48;6.60;;;4.83;;
20627;SDS011;10473;42.734;24.258;2022-12-07T00:39:17;5.00;;;4.20;;
20627;SDS011;10473;42.734;24.258;2022-12-07T00:41:45;5.30;;;3.77;;
20627;SDS011;10473;42.734;24.258;2022-12-07T00:44:14;5.90;;;3.90;;
20627;SDS011;10473;42.734;24.258;2022-12-07T00:46:42;7.93;;;4.23;;
20627;SDS011;10473;42.734;24.258;2022-12-07T00:49:11;6.67;;;3.90;;
20627;SDS011;10473;42.734;24.258;2022-12-07T00:51:39;5.90;;;4.30;;
20627;SDS011;10473;42.734;24.258;2022-12-07T00:54:07;8.30;;;4.13;;
20627;SDS011;10473;42.734;24.258;2022-12-07T00:56:34;5.03;;;3.90;;
20627;SDS011;10473;42.734;24.258;2022-12-07T00:59:02;9.43;;;4.97;;
20627;SDS011;10473;42.734;24.258;2022-12-07T01:01:34;5.67;;;3.80;;
20627;SDS011;10473;42.734;24.258;2022-12-07T01:04:02;5.63;;;4.07;;
20627;SDS011;10473;42.734;24.258;2022-12-07T01:06:31;6.67;;;5.03;;
20627;SDS011;10473;42.734;24.258;2022-12-07T01:08:59;4.73;;;3.97;;
20627;SDS011;10473;42.734;24.258;2022-12-07T01:11:28;8.57;;;5.00;;
20627;SDS011;10473;42.734;24.258;2022-12-07T01:13:57;9.53;;;5.60;;
20627;SDS011;10473;42.734;24.258;2022-12-07T01:16:27;9.17;;;5.97;;
20627;SDS011;10473;42.734;24.258;2022-12-07T01:18:59;17.63;;;4.80;;
20627;SDS011;10473;42.734;24.258;2022-12-07T01:21:29;9.93;;;5.30;;
20627;SDS011;10473;42.734;24.258;2022-12-07T01:24:00;9.43;;;6.30;;
20627;SDS011;10473;42.734;24.258;2022-12-07T01:26:29;10.10;;;5.00;;
20627;SDS011;10473;42.734;24.258;2022-12-07T01:28:56;8.77;;;6.07;;
20627;SDS011;10473;42.734;24.258;2022-12-07T01:31:26;11.70;;;6.03;;
20627;SDS011;10473;42.734;24.258;2022-12-07T01:33:56;7.47;;;5.00;;
20627;SDS011;10473;42.734;24.258;2022-12-07T01:36:26;6.97;;;4.83;;
20627;SDS011;10473;42.734;24.258;2022-12-07T01:38:56;8.50;;;4.57;;
20627;SDS011;10473;42.734;24.258;2022-12-07T01:41:26;11.13;;;6.57;;
20627;SDS011;10473;42.734;24.258;2022-12-07T01:44:08;9.77;;;5.70;;
20627;SDS011;10473;42.734;24.258;2022-12-07T01:46:42;14.03;;;6.60;;
20627;SDS011;10473;42.734;24.258;2022-12-07T01:49:12;10.97;;;6.97;;
20627;SDS011;10473;42.734;24.258;2022-12-07T01:51:46;9.23;;;6.73;;
20627;SDS011;10473;42.734;24.258;2022-12-07T01:54:16;11.17;;;7.50;;
20627;SDS011;10473;42.734;24.258;2022-12-07T01:56:47;9.30;;;6.10;;
20627;SDS011;10473;42.734;24.258;2022-12-07T01:59:19;10.90;;;6.33;;
20627;SDS011;10473;42.734;24.258;2022-12-07T02:01:48;12.00;;;6.23;;
20627;SDS011;10473;42.734;24.258;2022-12-07T02:04:16;8.13;;;5.43;;
20627;SDS011;10473;42.734;24.258;2022-12-07T02:06:46;9.97;;;6.27;;
20627;SDS011;10473;42.734;24.258;2022-12-07T02:09:14;10.83;;;6.60;;
20627;SDS011;10473;42.734;24.258;2022-12-07T02:11:42;13.87;;;6.83;;
20627;SDS011;10473;42.734;24.258;2022-12-07T02:14:10;11.47;;;6.73;;
20627;SDS011;10473;42.734;24.258;2022-12-07T02:16:40;12.17;;;6.53;;
20627;SDS011;10473;42.734;24.258;2022-12-07T02:19:20;10.87;;;6.20;;
20627;SDS011;10473;42.734;24.258;2022-12-07T02:22:22;6.73;;;4.47;;
20627;SDS011;10473;42.734;24.258;2022-12-07T02:25:08;8.60;;;4.97;;
20627;SDS011;10473;42.734;24.258;2022-12-07T02:27:47;6.20;;;3.67;;
20627;SDS011;10473;42.734;24.258;2022-12-07T02:30:21;5.03;;;3.50;;
20627;SDS011;10473;42.734;24.258;2022-12-07T02:32:55;7.23;;;4.20;;
20627;SDS011;10473;42.734;24.258;2022-12-07T02:35:29;9.80;;;4.80;;
20627;SDS011;10473;42.734;24.258;2022-12-07T02:38:02;9.57;;;5.07;;
20627;SDS011;10473;42.734;24.258;2022-12-07T02:40:36;7.17;;;4.83;;
20627;SDS011;10473;42.734;24.258;2022-12-07T02:43:08;12.60;;;5.63;;
20627;SDS011;10473;42.734;24.258;2022-12-07T02:45:43;6.97;;;5.80;;
20627;SDS011;10473;42.734;24.258;2022-12-07T02:48:13;13.20;;;6.43;;
20627;SDS011;10473;42.734;24.258;2022-12-07T02:50:44;8.53;;;4.93;;
20627;SDS011;10473;42.734;24.258;2022-12-07T02:53:33;7.60;;;4.97;;
20627;SDS011;10473;42.734;24.258;2022-12-07T02:56:05;13.00;;;6.67;;
20627;SDS011;10473;42.734;24.258;2022-12-07T02:58:40;8.10;;;5.13;;
20627;SDS011;10473;42.734;24.258;2022-12-07T03:01:22;11.80;;;5.63;;
20627;SDS011;10473;42.734;24.258;2022-12-07T03:03:58;9.50;;;5.50;;
20627;SDS011;10473;42.734;24.258;2022-12-07T03:06:38;12.90;;;5.47;;
20627;SDS011;10473;42.734;24.258;2022-12-07T03:09:17;8.07;;;4.97;;
20627;SDS011;10473;42.734;24.258;2022-12-07T03:11:51;9.67;;;5.30;;
20627;SDS011;10473;42.734;24.258;2022-12-07T03:14:29;10.40;;;6.07;;
20627;SDS011;10473;42.734;24.258;2022-12-07T03:17:01;12.67;;;6.17;;
20627;SDS011;10473;42.734;24.258;2022-12-07T03:19:34;11.20;;;5.70;;
20627;SDS011;10473;42.734;24.258;2022-12-07T03:22:05;8.20;;;5.73;;
20627;SDS011;10473;42.734;24.258;2022-12-07T03:24:37;8.47;;;5.87;;
20627;SDS011;10473;42.734;24.258;2022-12-07T03:27:10;8.97;;;5.93;;
20627;SDS011;10473;42.734;24.258;2022-12-07T03:29:45;12.90;;;5.53;;
20627;SDS011;10473;42.734;24.258;2022-12-07T03:32:19;7.80;;;4.53;;
20627;SDS011;10473;42.734;24.258;2022-12-07T03:34:51;11.50;;;6.90;;
20627;SDS011;10473;42.734;24.258;2022-12-07T03:37:26;10.10;;;6.60;;
20627;SDS011;10473;42.734;24.258;2022-12-07T03:40:01;8.23;;;5.30;;
20627;SDS011;10473;42.734;24.258;2022-12-07T03:42:33;17.00;;;5.43;;
20627;SDS011;10473;42.734;24.258;2022-12-07T03:45:02;10.60;;;4.60;;
20627;SDS011;10473;42.734;24.258;2022-12-07T03:47:33;8.57;;;6.30;;
20627;SDS011;10473;42.734;24.258;2022-12-07T03:50:10;8.30;;;6.20;;
20627;SDS011;10473;42.734;24.258;2022-12-07T03:52:44;7.57;;;5.00;;
20627;SDS011;10473;42.734;24.258;2022-12-07T03:55:18;8.17;;;5.37;;
20627;SDS011;10473;42.734;24.258;2022-12-07T03:57:51;8.33;;;4.93;;
20627;SDS011;10473;42.734;24.258;2022-12-07T04:00:22;12.57;;;5.13;;
20627;SDS011;10473;42.734;24.258;2022-12-07T04:02:52;9.40;;;4.93;;
20627;SDS011;10473;42.734;24.258;2022-12-07T04:05:20;6.83;;;4.80;;
20627;SDS011;10473;42.734;24.258;2022-12-07T04:07:47;7.20;;;4.97;;
20627;SDS011;10473;42.734;24.258;2022-12-07T04:10:16;7.30;;;4.07;;
20627;SDS011;10473;42.734;24.258;2022-12-07T04:12:43;5.63;;;4.57;;
20627;SDS011;10473;42.734;24.258;2022-12-07T04:15:11;9.17;;;4.40;;
20627;SDS011;10473;42.734;24.258;2022-12-07T04:17:39;6.23;;;3.93;;
20627;SDS011;10473;42.734;24.258;2022-12-07T04:20:09;6.33;;;3.60;;
20627;SDS011;10473;42.734;24.258;2022-12-07T04:22:38;8.10;;;5.30;;
20627;SDS011;10473;42.734;24.258;2022-12-07T04:25:06;7.33;;;5.17;;
20627;SDS011;10473;42.734;24.258;2022-12-07T04:27:34;8.83;;;4.13;;
20627;SDS011;10473;42.734;24.258;2022-12-07T04:30:02;7.60;;;4.23;;
20627;SDS011;10473;42.734;24.258;2022-12-07T04:32:30;9.67;;;5.87;;
20627;SDS011;10473;42.734;24.258;2022-12-07T04:34:58;9.23;;;6.97;;
20627;SDS011;10473;42.734;24.258;2022-12-07T04:37:27;15.40;;;8.90;;
20627;SDS011;10473;42.734;24.258;2022-12-07T04:39:55;12.80;;;7.10;;
20627;SDS011;10473;42.734;24.258;2022-12-07T04:42:23;18.53;;;9.07;;
20627;SDS011;10473;42.734;24.258;2022-12-07T04:44:51;16.13;;;9.00;;
20627;SDS011;10473;42.734;24.258;2022-12-07T04:47:18;11.27;;;6.60;;
20627;SDS011;10473;42.734;24.258;2022-12-07T04:49:46;11.70;;;6.37;;
20627;SDS011;10473;42.734;24.258;2022-12-07T04:52:14;9.10;;;6.73;;
20627;SDS011;10473;42.734;24.258;2022-12-07T04:54:43;13.77;;;10.07;;
20627;SDS011;10473;42.734;24.258;2022-12-07T04:57:11;9.00;;;6.47;;
20627;SDS011;10473;42.734;24.258;2022-12-07T04:59:39;8.97;;;5.83;;
20627;SDS011;10473;42.734;24.258;2022-12-07T05:02:06;9.37;;;5.60;;
20627;SDS011;10473;42.734;24.258;2022-12-07T05:04:34;11.60;;;4.33;;
20627;SDS011;10473;42.734;24.258;2022-12-07T05:07:02;9.83;;;5.23;;
20627;SDS011;10473;42.734;24.258;2022-12-07T05:09:29;7.27;;;4.20;;
20627;SDS011;10473;42.734;24.258;2022-12-07T05:11:58;10.13;;;5.17;;
20627;SDS011;10473;42.734;24.258;2022-12-07T05:14:26;9.23;;;4.53;;
20627;SDS011;10473;42.734;24.258;2022-12-07T05:16:54;9.03;;;6.77;;
20627;SDS011;10473;42.734;24.258;2022-12-07T05:19:21;6.37;;;4.97;;
20627;SDS011;10473;42.734;24.258;2022-12-07T05:21:49;8.37;;;5.77;;
20627;SDS011;10473;42.734;24.258;2022-12-07T05:24:17;7.27;;;5.40;;
20627;SDS011;10473;42.734;24.258;2022-12-07T05:26:45;11.13;;;6.40;;
20627;SDS011;10473;42.734;24.258;2022-12-07T05:29:15;30.50;;;14.50;;
20627;SDS011;10473;42.734;24.258;2022-12-07T05:31:44;33.70;;;14.27;;
20627;SDS011;10473;42.734;24.258;2022-12-07T05:34:12;18.87;;;9.10;;
20627;SDS011;10473;42.734;24.258;2022-12-07T05:36:40;18.87;;;9.07;;
20627;SDS011;10473;42.734;24.258;2022-12-07T05:39:08;21.03;;;10.27;;
20627;SDS011;10473;42.734;24.258;2022-12-07T05:41:36;19.97;;;10.83;;
20627;SDS011;10473;42.734;24.258;2022-12-07T05:44:22;29.77;;;13.10;;
20627;SDS011;10473;42.734;24.258;2022-12-07T05:46:50;72.20;;;35.07;;
20627;SDS011;10473;42.734;24.258;2022-12-07T05:49:17;34.60;;;17.10;;
20627;SDS011;10473;42.734;24.258;2022-12-07T05:51:45;35.73;;;16.67;;
20627;SDS011;10473;42.734;24.258;2022-12-07T05:54:13;25.53;;;15.43;;
20627;SDS011;10473;42.734;24.258;2022-12-07T05:56:40;15.90;;;10.03;;
20627;SDS011;10473;42.734;24.258;2022-12-07T05:59:08;16.30;;;9.33;;
20627;SDS011;10473;42.734;24.258;2022-12-07T06:01:52;15.90;;;9.87;;
20627;SDS011;10473;42.734;24.258;2022-12-07T06:04:21;13.03;;;9.13;;
20627;SDS011;10473;42.734;24.258;2022-12-07T06:06:49;14.30;;;10.30;;
20627;SDS011;10473;42.734;24.258;2022-12-07T06:09:17;14.97;;;10.30;;
20627;SDS011;10473;42.734;24.258;2022-12-07T06:11:45;18.73;;;10.67;;
20627;SDS011;10473;42.734;24.258;2022-12-07T06:14:30;14.37;;;9.50;;
20627;SDS011;10473;42.734;24.258;2022-12-07T06:16:59;12.70;;;7.50;;
20627;SDS011;10473;42.734;24.258;2022-12-07T06:19:27;15.03;;;9.40;;
20627;SDS011;10473;42.734;24.258;2022-12-07T06:21:54;14.03;;;8.67;;
20627;SDS011;10473;42.734;24.258;2022-12-07T06:24:23;16.60;;;9.80;;
20627;SDS011;10473;42.734;24.258;2022-12-07T06:26:50;13.53;;;9.50;;
20627;SDS011;10473;42.734;24.258;2022-12-07T06:29:18;18.03;;;11.70;;
20627;SDS011;10473;42.734;24.258;2022-12-07T06:31:46;23.03;;;12.27;;
20627;SDS011;10473;42.734;24.258;2022-12-07T06:34:16;15.40;;;9.33;;
20627;SDS011;10473;42.734;24.258;2022-12-07T06:36:45;21.93;;;11.13;;
20627;SDS011;10473;42.734;24.258;2022-12-07T06:39:17;16.50;;;11.20;;
20627;SDS011;10473;42.734;24.258;2022-12-07T06:41:45;18.60;;;12.17;;
20627;SDS011;10473;42.734;24.258;2022-12-07T06:44:13;22.47;;;12.53;;
20627;SDS011;10473;42.734;24.258;2022-12-07T06:46:40;23.70;;;11.73;;
20627;SDS011;10473;42.734;24.258;2022-12-07T06:49:08;12.43;;;8.47;;
20627;SDS011;10473;42.734;24.258;2022-12-07T06:51:37;14.37;;;9.97;;
20627;SDS011;10473;42.734;24.258;2022-12-07T06:54:07;14.40;;;8.90;;
20627;SDS011;10473;42.734;24.258;2022-12-07T06:56:35;13.00;;;9.10;;
20627;SDS011;10473;42.734;24.258;2022-12-07T06:59:02;15.17;;;8.47;;
20627;SDS011;10473;42.734;24.258;2022-12-07T07:01:31;12.40;;;7.63;;
20627;SDS011;10473;42.734;24.258;2022-12-07T07:03:59;24.87;;;14.47;;
20627;SDS011;10473;42.734;24.258;2022-12-07T07:06:27;28.13;;;16.57;;
20627;SDS011;10473;42.734;24.258;2022-12-07T07:08:56;17.67;;;13.17;;
20627;SDS011;10473;42.734;24.258;2022-12-07T07:11:24;17.10;;;12.27;;
20627;SDS011;10473;42.734;24.258;2022-12-07T07:13:52;16.43;;;11.50;;
20627;SDS011;10473;42.734;24.258;2022-12-07T07:16:23;18.13;;;9.97;;
20627;SDS011;10473;42.734;24.258;2022-12-07T07:18:51;19.80;;;9.87;;
20627;SDS011;10473;42.734;24.258;2022-12-07T07:21:18;14.10;;;8.53;;
20627;SDS011;10473;42.734;24.258;2022-12-07T07:23:46;13.40;;;8.47;;
20627;SDS011;10473;42.734;24.258;2022-12-07T07:26:15;16.90;;;7.10;;
20627;SDS011;10473;42.734;24.258;2022-12-07T07:28:45;12.73;;;7.70;;
20627;SDS011;10473;42.734;24.258;2022-12-07T07:31:13;13.03;;;7.70;;
20627;SDS011;10473;42.734;24.258;2022-12-07T07:33:40;10.00;;;6.63;;
20627;SDS011;10473;42.734;24.258;2022-12-07T07:36:08;11.83;;;8.30;;
20627;SDS011;10473;42.734;24.258;2022-12-07T07:38:36;14.90;;;7.53;;
20627;SDS011;10473;42.734;24.258;2022-12-07T07:41:04;14.40;;;8.87;;
20627;SDS011;10473;42.734;24.258;2022-12-07T07:43:33;10.27;;;7.17;;
20627;SDS011;10473;42.734;24.258;2022-12-07T07:46:01;11.17;;;7.67;;
20627;SDS011;10473;42.734;24.258;2022-12-07T07:48:29;11.17;;;7.23;;
20627;SDS011;10473;42.734;24.258;2022-12-07T07:50:56;13.43;;;8.00;;
20627;SDS011;10473;42.734;24.258;2022-12-07T07:53:24;10.23;;;7.07;;
20627;SDS011;10473;42.734;24.258;2022-12-07T07:55:52;9.17;;;6.13;;
20627;SDS011;10473;42.734;24.258;2022-12-07T07:58:20;11.33;;;6.00;;
20627;SDS011;10473;42.734;24.258;2022-12-07T08:00:51;11.57;;;5.17;;
20627;SDS011;10473;42.734;24.258;2022-12-07T08:03:19;7.80;;;5.73;;
20627;SDS011;10473;42.734;24.258;2022-12-07T08:05:47;10.27;;;6.47;;
20627;SDS011;10473;42.734;24.258;2022-12-07T08:08:14;10.43;;;6.03;;
20627;SDS011;10473;42.734;24.258;2022-12-07T08:10:42;13.20;;;6.13;;
20627;SDS011;10473;42.734;24.258;2022-12-07T08:13:10;9.23;;;6.63;;
20627;SDS011;10473;42.734;24.258;2022-12-07T08:15:39;11.93;;;7.73;;
20627;SDS011;10473;42.734;24.258;2022-12-07T08:18:10;10.00;;;6.17;;
20627;SDS011;10473;42.734;24.258;2022-12-07T08:20:39;11.10;;;7.10;;
20627;SDS011;10473;42.734;24.258;2022-12-07T08:23:09;11.97;;;8.47;;
20627;SDS011;10473;42.734;24.258;2022-12-07T08:25:38;13.83;;;7.97;;
20627;SDS011;10473;42.734;24.258;2022-12-07T08:28:06;10.07;;;7.13;;
20627;SDS011;10473;42.734;24.258;2022-12-07T08:30:34;14.03;;;8.47;;
20627;SDS011;10473;42.734;24.258;2022-12-07T08:33:02;14.03;;;9.10;;
20627;SDS011;10473;42.734;24.258;2022-12-07T08:35:32;16.43;;;9.90;;
20627;SDS011;10473;42.734;24.258;2022-12-07T08:38:00;20.47;;;11.77;;
20627;SDS011;10473;42.734;24.258;2022-12-07T08:40:28;17.87;;;12.07;;
20627;SDS011;10473;42.734;24.258;2022-12-07T08:42:55;26.47;;;17.13;;
20627;SDS011;10473;42.734;24.258;2022-12-07T08:45:23;26.47;;;14.30;;
20627;SDS011;10473;42.734;24.258;2022-12-07T08:47:52;23.50;;;12.33;;
20627;SDS011;10473;42.734;24.258;2022-12-07T08:50:22;19.77;;;7.90;;
20627;SDS011;10473;42.734;24.258;2022-12-07T08:52:52;8.97;;;5.93;;
20627;SDS011;10473;42.734;24.258;2022-12-07T08:55:22;9.27;;;6.33;;
20627;SDS011;10473;42.734;24.258;2022-12-07T08:57:50;8.63;;;6.53;;
20627;SDS011;10473;42.734;24.258;2022-12-07T09:00:18;17.43;;;6.67;;
20627;SDS011;10473;42.734;24.258;2022-12-07T09:02:46;9.90;;;6.03;;
20627;SDS011;10473;42.734;24.258;2022-12-07T09:05:14;8.30;;;5.37;;
20627;SDS011;10473;42.734;24.258;2022-12-07T09:07:42;10.67;;;5.47;;
20627;SDS011;10473;42.734;24.258;2022-12-07T09:10:13;10.17;;;6.10;;
20627;SDS011;10473;42.734;24.258;2022-12-07T09:12:41;7.50;;;5.10;;
20627;SDS011;10473;42.734;24.258;2022-12-07T09:15:08;11.70;;;6.50;;
20627;SDS011;10473;42.734;24.258;2022-12-07T09:17:36;7.90;;;4.97;;
20627;SDS011;10473;42.734;24.258;2022-12-07T09:20:04;7.33;;;4.40;;
20627;SDS011;10473;42.734;24.258;2022-12-07T09:22:33;7.77;;;4.97;;
20627;SDS011;10473;42.734;24.258;2022-12-07T09:25:01;6.83;;;4.87;;
20627;SDS011;10473;42.734;24.258;2022-12-07T09:27:30;5.17;;;3.83;;
20627;SDS011;10473;42.734;24.258;2022-12-07T09:29:58;7.90;;;5.30;;
20627;SDS011;10473;42.734;24.258;2022-12-07T09:32:26;6.83;;;4.40;;
20627;SDS011;10473;42.734;24.258;2022-12-07T09:34:54;8.83;;;3.93;;
20627;SDS011;10473;42.734;24.258;2022-12-07T09:37:23;9.83;;;4.40;;
20627;SDS011;10473;42.734;24.258;2022-12-07T09:39:51;12.27;;;4.87;;
20627;SDS011;10473;42.734;24.258;2022-12-07T09:42:24;6.90;;;4.50;;
20627;SDS011;10473;42.734;24.258;2022-12-07T09:44:57;9.37;;;4.80;;
20627;SDS011;10473;42.734;24.258;2022-12-07T09:47:26;7.83;;;3.60;;
20627;SDS011;10473;42.734;24.258;2022-12-07T09:49:55;5.73;;;3.60;;
20627;SDS011;10473;42.734;24.258;2022-12-07T09:52:31;6.33;;;4.50;;
20627;SDS011;10473;42.734;24.258;2022-12-07T09:54:59;6.83;;;3.40;;
20627;SDS011;10473;42.734;24.258;2022-12-07T09:57:27;5.67;;;3.70;;
20627;SDS011;10473;42.734;24.258;2022-12-07T09:59:59;6.73;;;3.77;;
20627;SDS011;10473;42.734;24.258;2022-12-07T10:02:35;5.83;;;3.30;;
20627;SDS011;10473;42.734;24.258;2022-12-07T10:05:05;3.73;;;2.57;;
20627;SDS011;10473;42.734;24.258;2022-12-07T10:07:34;5.47;;;2.80;;
20627;SDS011;10473;42.734;24.258;2022-12-07T10:10:03;4.77;;;3.40;;
20627;SDS011;10473;42.734;24.258;2022-12-07T10:12:32;4.70;;;3.50;;
20627;SDS011;10473;42.734;24.258;2022-12-07T10:15:30;4.57;;;3.37;;
20627;SDS011;10473;42.734;24.258;2022-12-07T10:18:17;3.97;;;2.83;;
20627;SDS011;10473;42.734;24.258;2022-12-07T10:21:09;6.93;;;4.33;;
20627;SDS011;10473;42.734;24.258;2022-12-07T10:23:59;5.97;;;3.03;;
20627;SDS011;10473;42.734;24.258;2022-12-07T10:26:33;5.23;;;2.53;;
20627;SDS011;10473;42.734;24.258;2022-12-07T10:29:04;3.53;;;2.50;;
20627;SDS011;10473;42.734;24.258;2022-12-07T10:31:45;4.53;;;2.40;;
20627;SDS011;10473;42.734;24.258;2022-12-07T10:34:38;4.53;;;2.17;;
20627;SDS011;10473;42.734;24.258;2022-12-07T10:37:11;3.43;;;2.30;;
20627;SDS011;10473;42.734;24.258;2022-12-07T10:39:52;4.27;;;2.00;;
20627;SDS011;10473;42.734;24.258;2022-12-07T10:42:22;2.40;;;2.10;;
20627;SDS011;10473;42.734;24.258;2022-12-07T10:45:06;4.90;;;4.00;;
20627;SDS011;10473;42.734;24.258;2022-12-07T10:47:40;3.23;;;2.23;;
20627;SDS011;10473;42.734;24.258;2022-12-07T10:53:35;3.83;;;3.13;;
20627;SDS011;10473;42.734;24.258;2022-12-07T10:59:25;2.83;;;1.90;;
20627;SDS011;10473;42.734;24.258;2022-12-07T11:02:13;3.70;;;2.03;;
20627;SDS011;10473;42.734;24.258;2022-12-07T11:05:02;4.23;;;1.70;;
20627;SDS011;10473;42.734;24.258;2022-12-07T11:07:52;3.33;;;3.00;;
20627;SDS011;10473;42.734;24.258;2022-12-07T11:10:30;2.63;;;1.80;;
20627;SDS011;10473;42.734;24.258;2022-12-07T11:16:03;3.77;;;1.80;;
20627;SDS011;10473;42.734;24.258;2022-12-07T11:18:45;4.20;;;2.13;;
20627;SDS011;10473;42.734;24.258;2022-12-07T11:21:24;5.60;;;2.53;;
20627;SDS011;10473;42.734;24.258;2022-12-07T11:24:01;2.73;;;1.93;;
20627;SDS011;10473;42.734;24.258;2022-12-07T11:26:37;4.97;;;2.63;;
20627;SDS011;10473;42.734;24.258;2022-12-07T11:29:20;4.53;;;3.33;;
20627;SDS011;10473;42.734;24.258;2022-12-07T11:31:58;4.60;;;2.20;;
20627;SDS011;10473;42.734;24.258;2022-12-07T11:34:36;2.80;;;2.00;;
20627;SDS011;10473;42.734;24.258;2022-12-07T11:37:12;3.00;;;2.13;;
20627;SDS011;10473;42.734;24.258;2022-12-07T11:39:46;2.93;;;1.90;;
20627;SDS011;10473;42.734;24.258;2022-12-07T11:42:20;2.27;;;1.93;;
20627;SDS011;10473;42.734;24.258;2022-12-07T11:44:50;2.17;;;1.70;;
20627;SDS011;10473;42.734;24.258;2022-12-07T11:47:24;2.60;;;2.10;;
20627;SDS011;10473;42.734;24.258;2022-12-07T11:50:01;2.30;;;1.70;;
20627;SDS011;10473;42.734;24.258;2022-12-07T11:52:43;3.10;;;1.70;;
20627;SDS011;10473;42.734;24.258;2022-12-07T11:55:17;2.07;;;1.60;;
20627;SDS011;10473;42.734;24.258;2022-12-07T11:57:50;4.83;;;2.80;;
20627;SDS011;10473;42.734;24.258;2022-12-07T12:00:22;4.77;;;2.90;;
20627;SDS011;10473;42.734;24.258;2022-12-07T12:02:51;3.30;;;2.27;;
20627;SDS011;10473;42.734;24.258;2022-12-07T12:05:25;2.63;;;1.70;;
20627;SDS011;10473;42.734;24.258;2022-12-07T12:07:57;2.30;;;1.93;;
20627;SDS011;10473;42.734;24.258;2022-12-07T12:10:35;3.57;;;1.83;;
20627;SDS011;10473;42.734;24.258;2022-12-07T12:13:21;4.33;;;3.13;;
20627;SDS011;10473;42.734;24.258;2022-12-07T12:16:17;3.50;;;2.10;;
20627;SDS011;10473;42.734;24.258;2022-12-07T12:19:16;2.33;;;1.67;;
20627;SDS011;10473;42.734;24.258;2022-12-07T12:21:53;11.33;;;10.17;;
20627;SDS011;10473;42.734;24.258;2022-12-07T12:24:26;5.20;;;4.17;;
20627;SDS011;10473;42.734;24.258;2022-12-07T12:26:57;3.33;;;2.70;;
20627;SDS011;10473;42.734;24.258;2022-12-07T12:29:31;3.17;;;2.33;;
20627;SDS011;10473;42.734;24.258;2022-12-07T12:32:12;2.50;;;1.93;;
20627;SDS011;10473;42.734;24.258;2022-12-07T12:34:57;8.67;;;4.00;;
20627;SDS011;10473;42.734;24.258;2022-12-07T12:46:37;10.30;;;5.67;;
20627;SDS011;10473;42.734;24.258;2022-12-07T12:55:15;5.03;;;2.43;;
20627;SDS011;10473;42.734;24.258;2022-12-07T13:13:29;3.43;;;2.37;;
20627;SDS011;10473;42.734;24.258;2022-12-07T13:22:43;6.23;;;2.77;;
20627;SDS011;10473;42.734;24.258;2022-12-07T13:25:19;4.90;;;3.33;;
20627;SDS011;10473;42.734;24.258;2022-12-07T13:27:56;4.83;;;3.00;;
20627;SDS011;10473;42.734;24.258;2022-12-07T13:30:28;3.83;;;2.50;;
20627;SDS011;10473;42.734;24.258;2022-12-07T13:33:17;7.03;;;3.10;;
20627;SDS011;10473;42.734;24.258;2022-12-07T13:35:54;6.63;;;3.43;;
20627;SDS011;10473;42.734;24.258;2022-12-07T13:38:48;9.30;;;3.57;;
20627;SDS011;10473;42.734;24.258;2022-12-07T13:41:20;7.27;;;3.07;;
20627;SDS011;10473;42.734;24.258;2022-12-07T13:43:50;6.97;;;4.03;;
20627;SDS011;10473;42.734;24.258;2022-12-07T13:46:31;6.83;;;4.50;;
20627;SDS011;10473;42.734;24.258;2022-12-07T13:49:18;5.43;;;3.67;;
20627;SDS011;10473;42.734;24.258;2022-12-07T13:51:52;6.03;;;3.50;;
20627;SDS011;10473;42.734;24.258;2022-12-07T13:54:43;12.37;;;5.83;;
20627;SDS011;10473;42.734;24.258;2022-12-07T13:57:14;11.47;;;5.80;;
20627;SDS011;10473;42.734;24.258;2022-12-07T13:59:44;6.47;;;4.47;;
20627;SDS011;10473;42.734;24.258;2022-12-07T14:02:18;7.63;;;4.47;;
20627;SDS011;10473;42.734;24.258;2022-12-07T14:04:51;10.53;;;4.57;;
20627;SDS011;10473;42.734;24.258;2022-12-07T14:07:35;7.47;;;4.77;;
20627;SDS011;10473;42.734;24.258;2022-12-07T14:10:22;6.00;;;4.03;;
20627;SDS011;10473;42.734;24.258;2022-12-07T14:12:52;8.03;;;5.07;;
20627;SDS011;10473;42.734;24.258;2022-12-07T14:15:22;7.80;;;4.70;;
20627;SDS011;10473;42.734;24.258;2022-12-07T14:17:54;10.63;;;6.70;;
20627;SDS011;10473;42.734;24.258;2022-12-07T14:20:31;10.90;;;5.60;;
20627;SDS011;10473;42.734;24.258;2022-12-07T14:23:00;9.77;;;6.10;;
20627;SDS011;10473;42.734;24.258;2022-12-07T14:25:44;8.37;;;4.90;;
20627;SDS011;10473;42.734;24.258;2022-12-07T14:28:27;9.23;;;5.13;;
20627;SDS011;10473;42.734;24.258;2022-12-07T14:30:59;11.27;;;5.30;;
20627;SDS011;10473;42.734;24.258;2022-12-07T14:33:28;6.40;;;3.47;;
20627;SDS011;10473;42.734;24.258;2022-12-07T14:35:57;10.30;;;5.20;;
20627;SDS011;10473;42.734;24.258;2022-12-07T14:38:26;12.13;;;4.17;;
20627;SDS011;10473;42.734;24.258;2022-12-07T14:40:59;8.07;;;4.07;;
20627;SDS011;10473;42.734;24.258;2022-12-07T14:43:44;10.33;;;5.43;;
20627;SDS011;10473;42.734;24.258;2022-12-07T14:46:12;8.40;;;5.30;;
20627;SDS011;10473;42.734;24.258;2022-12-07T14:48:49;14.50;;;7.83;;
20627;SDS011;10473;42.734;24.258;2022-12-07T14:51:19;10.03;;;6.30;;
20627;SDS011;10473;42.734;24.258;2022-12-07T14:53:48;10.97;;;5.90;;
20627;SDS011;10473;42.734;24.258;2022-12-07T14:56:19;7.47;;;5.27;;
20627;SDS011;10473;42.734;24.258;2022-12-07T14:58:50;9.13;;;5.77;;
20627;SDS011;10473;42.734;24.258;2022-12-07T15:01:17;10.77;;;5.43;;
20627;SDS011;10473;42.734;24.258;2022-12-07T15:03:48;6.23;;;5.47;;
20627;SDS011;10473;42.734;24.258;2022-12-07T15:06:16;24.07;;;16.20;;
20627;SDS011;10473;42.734;24.258;2022-12-07T15:08:46;25.40;;;17.40;;
20627;SDS011;10473;42.734;24.258;2022-12-07T15:11:15;12.60;;;7.73;;
20627;SDS011;10473;42.734;24.258;2022-12-07T15:13:43;21.70;;;13.67;;
20627;SDS011;10473;42.734;24.258;2022-12-07T15:16:28;26.20;;;16.93;;
20627;SDS011;10473;42.734;24.258;2022-12-07T15:18:56;14.17;;;9.60;;
20627;SDS011;10473;42.734;24.258;2022-12-07T15:21:24;16.07;;;10.83;;
20627;SDS011;10473;42.734;24.258;2022-12-07T15:23:53;15.67;;;10.23;;
20627;SDS011;10473;42.734;24.258;2022-12-07T15:26:21;21.80;;;12.43;;
20627;SDS011;10473;42.734;24.258;2022-12-07T15:28:49;31.30;;;18.67;;
20627;SDS011;10473;42.734;24.258;2022-12-07T15:31:17;26.17;;;14.67;;
20627;SDS011;10473;42.734;24.258;2022-12-07T15:33:44;18.93;;;10.50;;
20627;SDS011;10473;42.734;24.258;2022-12-07T15:36:19;16.17;;;10.37;;
20627;SDS011;10473;42.734;24.258;2022-12-07T15:38:48;10.87;;;7.60;;
20627;SDS011;10473;42.734;24.258;2022-12-07T15:41:18;12.73;;;8.40;;
20627;SDS011;10473;42.734;24.258;2022-12-07T15:43:46;15.27;;;9.67;;